createdAt,value
2018-04-26T05:36:56.267Z,100654.16
2018-04-26T05:39:21.937Z,100672.77
2018-04-26T05:41:48.100Z,100681.59
2018-04-26T05:44:14.110Z,100691.56
2018-04-26T05:46:40.120Z,100677.98
2018-04-26T05:49:05.730Z,100690.22
2018-04-26T05:51:32.061Z,100688.15
2018-04-26T05:53:57.690Z,100692.97
2018-04-26T05:56:23.281Z,100692.08
2018-04-26T05:58:49.134Z,100687.78
2018-04-26T06:01:14.715Z,100699.78
2018-04-26T06:03:40.421Z,100702.66
2018-04-26T06:06:06.467Z,100708.72
2018-04-26T06:08:32.401Z,100719.83
2018-04-26T06:10:58.172Z,100722.55
2018-04-26T06:13:23.819Z,100714.95
2018-04-26T06:15:49.489Z,100728.25
2018-04-26T06:18:15.667Z,100727.05
2018-04-26T06:20:41.248Z,100728.00
2018-04-26T06:23:06.827Z,100724.95
2018-04-26T06:25:32.630Z,100727.38
2018-04-26T06:27:58.194Z,100728.52
2018-04-26T06:30:23.867Z,100738.69
2018-04-26T06:32:49.880Z,100738.65
2018-04-26T06:35:15.555Z,100741.70
2018-04-26T06:37:41.186Z,100748.02
2018-04-26T06:40:07.066Z,100751.18
2018-04-26T06:42:32.742Z,100747.97
2018-04-26T06:44:58.318Z,100746.50
2018-04-26T06:47:24.096Z,100745.51
2018-04-26T06:49:49.716Z,100744.88
2018-04-26T06:52:15.607Z,100744.73
2018-04-26T06:54:41.380Z,100750.92
2018-04-26T06:57:07.014Z,100747.53
2018-04-26T06:59:32.596Z,100751.28
2018-04-26T07:01:58.349Z,100747.25
2018-04-26T07:04:23.957Z,100747.74
2018-04-26T07:06:49.588Z,100754.58
2018-04-26T07:09:16.381Z,100746.00
2018-04-26T07:11:42.023Z,100754.81
2018-04-26T07:14:07.632Z,100754.15
2018-04-26T07:16:33.668Z,100761.79
2018-04-26T07:18:59.298Z,100761.12
2018-04-26T07:21:24.857Z,100758.56
2018-04-26T07:23:50.629Z,100757.02
2018-04-26T07:26:16.239Z,100775.64
2018-04-26T07:28:41.810Z,100773.73
2018-04-26T07:31:07.701Z,100763.99
2018-04-26T07:33:33.261Z,100765.27
2018-04-26T07:35:58.826Z,100775.85
2018-04-26T07:38:24.609Z,100770.16
2018-04-26T07:40:50.494Z,100777.08
2018-04-26T07:43:16.126Z,100783.53
2018-04-26T07:45:42.216Z,100782.72
2018-04-26T07:48:07.811Z,100787.77
2018-04-26T07:50:33.422Z,100787.11
2018-04-26T07:52:59.329Z,100785.01
2018-04-26T07:55:24.969Z,100781.84
2018-04-26T07:57:50.665Z,100783.82
2018-04-26T08:00:16.512Z,100780.89
2018-04-26T08:02:42.107Z,100795.73
2018-04-26T08:05:07.778Z,100787.50
2018-04-26T08:07:33.782Z,100778.16
2018-04-26T08:09:59.340Z,100784.44
2018-04-26T08:12:24.921Z,100800.72
2018-04-26T08:14:50.602Z,100794.93
2018-04-26T08:17:16.287Z,100794.48
2018-04-26T08:19:41.941Z,100784.85
2018-04-26T08:22:07.976Z,100781.66
2018-04-26T08:24:33.722Z,100803.13
2018-04-26T08:26:59.339Z,100795.18
2018-04-26T08:29:25.027Z,100800.70
2018-04-26T08:31:50.805Z,100798.30
2018-04-26T08:34:16.553Z,100814.98
2018-04-26T08:36:42.173Z,100801.38
2018-04-26T08:39:07.948Z,100793.98
2018-04-26T08:41:33.502Z,100792.13
2018-04-26T08:43:59.076Z,100791.02
2018-04-26T08:46:24.798Z,100787.13
2018-04-26T08:48:50.376Z,100797.47
2018-04-26T08:51:16.011Z,100805.31
2018-04-26T08:53:42.057Z,100795.66
2018-04-26T08:56:07.658Z,100793.11
2018-04-26T08:58:33.543Z,100781.92
2018-04-26T09:00:59.222Z,100786.66
2018-04-26T09:03:24.834Z,100784.48
2018-04-26T09:05:50.401Z,100783.05
2018-04-26T09:08:16.151Z,100793.87
2018-04-26T09:10:41.794Z,100790.20
2018-04-26T09:13:07.418Z,100785.91
2018-04-26T09:15:33.316Z,100773.97
2018-04-26T09:17:59.106Z,100781.92
2018-04-26T09:20:24.718Z,100782.86
2018-04-26T09:22:50.797Z,100777.85
2018-04-26T09:25:16.397Z,100779.47
2018-04-26T09:27:41.963Z,100791.41
2018-04-26T09:30:07.748Z,100788.98
2018-04-26T09:32:33.303Z,100788.55
2018-04-26T09:34:58.857Z,100790.71
2018-04-26T09:37:24.669Z,100791.88
2018-04-26T09:39:50.363Z,100792.87
2018-04-26T09:42:15.977Z,100796.31
2018-04-26T09:44:42.053Z,100782.97
2018-04-26T09:47:07.639Z,100790.84
2018-04-26T09:49:33.252Z,100793.13
2018-04-26T09:52:00.426Z,100793.27
2018-04-26T09:54:26.256Z,100782.97
2018-04-26T09:56:51.830Z,100791.66
2018-04-26T09:59:19.237Z,100782.52
2018-04-26T10:01:44.923Z,100791.31
2018-04-26T10:04:16.335Z,100791.66
2018-04-26T10:07:01.919Z,100797.28
2018-04-26T10:09:27.638Z,100787.11
2018-04-26T10:11:53.269Z,100788.80
2018-04-26T10:14:19.030Z,100793.16
2018-04-26T10:16:44.602Z,100785.29
2018-04-26T10:19:10.257Z,100780.51
2018-04-26T10:21:36.046Z,100780.13
2018-04-26T10:24:01.802Z,100792.89
2018-04-26T10:26:27.436Z,100788.09
2018-04-26T10:28:53.004Z,100802.98
2018-04-26T10:31:18.760Z,100785.72
2018-04-26T10:33:44.549Z,100790.95
2018-04-26T10:36:10.095Z,100783.09
2018-04-26T10:38:36.016Z,100786.88
2018-04-26T10:41:01.960Z,100790.61
2018-04-26T10:43:27.709Z,100785.52
2018-04-26T10:45:53.283Z,100779.36
2018-04-26T10:48:19.185Z,100774.80
2018-04-26T10:50:44.741Z,100778.25
2018-04-26T10:53:10.413Z,100790.15
2018-04-26T10:55:36.313Z,100773.64
2018-04-26T10:58:01.927Z,100782.66
2018-04-26T11:00:27.730Z,100768.72
2018-04-26T11:02:53.616Z,100777.51
2018-04-26T11:05:19.233Z,100776.84
2018-04-26T11:07:45.006Z,100786.49
2018-04-26T11:10:10.653Z,100786.73
2018-04-26T11:12:36.276Z,100777.01
2018-04-26T11:15:02.211Z,100780.42
2018-04-26T11:17:27.787Z,100769.73
2018-04-26T11:19:53.604Z,100762.63
2018-04-26T11:22:19.319Z,100766.87
2018-04-26T11:24:44.889Z,100767.77
2018-04-26T11:27:10.446Z,100758.39
2018-04-26T11:29:36.295Z,100754.83
2018-04-26T11:32:01.905Z,100743.70
2018-04-26T11:34:27.558Z,100749.43
2018-04-26T11:36:53.352Z,100745.66
2018-04-26T11:39:18.909Z,100745.29
2018-04-26T11:41:44.570Z,100750.78
2018-04-26T11:44:10.609Z,100756.44
2018-04-26T11:46:36.229Z,100747.84
2018-04-26T11:49:01.871Z,100739.27
2018-04-26T11:51:27.685Z,100741.20
2018-04-26T11:53:53.283Z,100743.91
2018-04-26T11:56:18.902Z,100733.68
2018-04-26T11:58:44.588Z,100727.67
2018-04-26T12:01:10.146Z,100736.78
2018-04-26T12:03:35.756Z,100736.51
2018-04-26T12:06:01.636Z,100726.49
2018-04-26T12:08:27.214Z,100725.14
2018-04-26T12:10:52.898Z,100729.77
2018-04-26T12:13:19.005Z,100711.27
2018-04-26T12:15:44.724Z,100730.75
2018-04-26T12:18:10.321Z,100736.81
2018-04-26T12:20:36.115Z,100725.55
2018-04-26T12:23:01.677Z,100722.59
2018-04-26T12:25:27.272Z,100728.91
2018-04-26T12:27:53.120Z,100721.89
2018-04-26T12:30:18.712Z,100728.70
2018-04-26T12:32:44.286Z,100728.66
2018-04-26T12:35:10.229Z,100736.45
2018-04-26T12:37:35.731Z,100734.77
2018-04-26T12:40:01.292Z,100722.33
2018-04-26T12:42:27.344Z,100729.66
2018-04-26T12:44:53.176Z,100721.77
2018-04-26T12:50:47.945Z,100728.39
2018-04-26T12:53:13.537Z,100719.64
2018-04-26T12:55:39.117Z,100711.47
2018-04-26T12:58:04.976Z,100734.30
2018-04-26T13:00:30.472Z,100726.02
2018-04-26T13:02:56.030Z,100736.36
2018-04-26T13:05:22.148Z,100728.99
2018-04-26T13:07:47.771Z,100709.97
2018-04-26T13:10:13.671Z,100723.05
2018-04-26T13:12:39.516Z,100724.47
2018-04-26T13:15:05.123Z,100724.69
2018-04-26T13:17:30.753Z,100714.87
2018-04-26T13:19:57.613Z,100709.39
2018-04-26T13:22:23.177Z,100713.51
2018-04-26T13:24:48.810Z,100713.52
2018-04-26T13:27:14.646Z,100720.36
2018-04-26T13:29:40.275Z,100722.25
2018-04-26T13:32:05.836Z,100703.74
2018-04-26T13:34:31.896Z,100705.66
2018-04-26T13:36:57.520Z,100710.09
2018-04-26T13:39:24.641Z,100707.14
2018-04-26T13:41:50.392Z,100720.61
2018-04-26T13:44:16.298Z,100712.02
2018-04-26T13:46:41.856Z,100717.31
2018-04-26T13:49:07.774Z,100705.84
2018-04-26T13:51:33.403Z,100703.34
2018-04-26T13:53:59.024Z,100714.47
2018-04-26T13:56:24.742Z,100704.87
2018-04-26T13:58:50.373Z,100698.22
2018-04-26T14:01:16.152Z,100684.98
2018-04-26T14:03:41.713Z,100700.16
2018-04-26T14:06:08.166Z,100690.84
2018-04-26T14:08:33.779Z,100688.14
2018-04-26T14:10:59.342Z,100687.53
2018-04-26T14:13:25.179Z,100694.26
2018-04-26T14:15:50.802Z,100693.34
2018-04-26T14:18:16.362Z,100693.01
2018-04-26T14:20:42.159Z,100695.55
2018-04-26T14:23:07.932Z,100702.81
2018-04-26T14:25:33.383Z,100712.13
2018-04-26T14:27:59.533Z,100702.33
2018-04-26T14:30:25.147Z,100704.91
2018-04-26T14:32:50.751Z,100690.95
2018-04-26T14:35:16.535Z,100683.80
2018-04-26T14:37:42.205Z,100700.63
2018-04-26T14:40:07.698Z,100685.32
2018-04-26T14:42:33.493Z,100677.75
2018-04-26T14:44:59.065Z,100695.30
2018-04-26T14:47:24.729Z,100691.69
2018-04-26T14:49:50.516Z,100687.44
2018-04-26T14:52:16.368Z,100686.33
2018-04-26T14:54:41.949Z,100671.47
2018-04-26T14:57:07.684Z,100675.52
2018-04-26T14:59:33.287Z,100674.65
2018-04-26T15:01:58.916Z,100679.86
2018-04-26T15:04:24.641Z,100675.95
2018-04-26T15:06:50.255Z,100668.05
2018-04-26T15:09:15.828Z,100667.91
2018-04-26T15:11:41.634Z,100662.95
2018-04-26T15:14:07.262Z,100655.98
2018-04-26T15:16:32.973Z,100657.69
2018-04-26T15:18:58.781Z,100658.09
2018-04-26T15:21:24.517Z,100654.25
2018-04-26T15:23:50.081Z,100642.00
2018-04-26T15:26:15.704Z,100627.86
2018-04-26T15:28:41.733Z,100631.66
2018-04-26T15:31:07.302Z,100642.00
2018-04-26T15:33:32.918Z,100646.52
2018-04-26T15:35:58.635Z,100646.23
2018-04-26T15:38:24.353Z,100648.38
2018-04-26T15:40:49.990Z,100659.34
2018-04-26T15:43:16.026Z,100647.00
2018-04-26T15:45:41.586Z,100646.11
2018-04-26T15:48:07.119Z,100644.57
2018-04-26T15:50:36.021Z,100655.72
2018-04-26T15:53:39.358Z,100641.64
2018-04-26T15:56:55.475Z,100639.39
2018-04-26T15:59:58.829Z,100641.00
2018-04-26T16:03:04.648Z,100636.03
2018-04-26T16:06:01.500Z,100637.02
2018-04-26T16:09:04.908Z,100640.87
2018-04-26T16:12:07.604Z,100638.73
2018-04-26T16:15:10.723Z,100637.25
2018-04-26T16:18:33.280Z,100643.90
2018-04-26T16:21:36.486Z,100638.70
2018-04-26T16:24:55.664Z,100640.28
2018-04-26T16:27:58.782Z,100644.46
2018-04-26T16:31:20.716Z,100641.95
2018-04-26T16:34:23.942Z,100649.41
2018-04-26T16:37:46.230Z,100649.54
2018-04-26T16:40:11.798Z,100642.56
2018-04-26T16:42:37.455Z,100632.55
2018-04-26T16:45:03.494Z,100641.09
2018-04-26T16:47:29.067Z,100632.41
2018-04-26T16:49:54.763Z,100646.89
2018-04-26T16:52:20.507Z,100641.25
2018-04-26T16:54:46.071Z,100638.95
2018-04-26T16:57:11.713Z,100637.77
2018-04-26T16:59:37.489Z,100632.66
2018-04-26T17:02:03.076Z,100635.62
2018-04-26T17:04:28.848Z,100638.45
2018-04-26T17:06:54.732Z,100650.83
2018-04-26T17:09:20.352Z,100643.29
2018-04-26T17:11:45.961Z,100644.31
2018-04-26T17:14:12.377Z,100645.23
2018-04-26T17:16:39.014Z,100642.08
2018-04-26T17:19:04.665Z,100642.14
2018-04-26T17:21:30.847Z,100655.52
2018-04-26T17:23:56.425Z,100645.41
2018-04-26T17:26:22.238Z,100654.03
2018-04-26T17:28:48.137Z,100649.83
2018-04-26T17:31:13.781Z,100640.87
2018-04-26T17:33:39.623Z,100649.75
2018-04-26T17:36:05.243Z,100658.42
2018-04-26T17:38:30.884Z,100647.86
2018-04-26T17:40:56.552Z,100643.65
2018-04-26T17:43:22.232Z,100644.06
2018-04-26T17:45:48.232Z,100638.27
2018-04-26T17:48:13.787Z,100635.89
2018-04-26T17:50:39.731Z,100639.85
2018-04-26T17:53:05.371Z,100639.69
2018-04-26T17:55:31.283Z,100633.34
2018-04-26T17:57:56.894Z,100637.22
2018-04-26T18:00:22.906Z,100636.66
2018-04-26T18:02:48.526Z,100637.41
2018-04-26T18:05:14.882Z,100637.13
2018-04-26T18:07:40.490Z,100640.34
2018-04-26T18:10:06.151Z,100641.86
2018-04-26T18:12:32.154Z,100633.81
2018-04-26T18:14:58.256Z,100633.63
2018-04-26T18:17:23.865Z,100640.07
2018-04-26T18:19:49.505Z,100628.86
2018-04-26T18:22:15.540Z,100629.02
2018-04-26T18:24:41.555Z,100633.81
2018-04-26T18:27:07.238Z,100638.67
2018-04-26T18:29:33.067Z,100641.11
2018-04-26T18:31:58.632Z,100646.14
2018-04-26T18:34:24.161Z,100647.64
2018-04-26T18:36:49.939Z,100648.16
2018-04-26T18:39:15.793Z,100649.44
2018-04-26T18:41:41.726Z,100651.41
2018-04-26T18:44:07.426Z,100659.02
2018-04-26T18:46:32.990Z,100666.48
2018-04-26T18:48:59.009Z,100664.45
2018-04-26T18:51:24.947Z,100657.67
2018-04-26T18:53:50.555Z,100665.36
2018-04-26T18:56:16.090Z,100663.22
2018-04-26T18:58:42.260Z,100667.08
2018-04-26T19:01:08.033Z,100681.50
2018-04-26T19:03:33.743Z,100684.59
2018-04-26T19:05:59.303Z,100681.03
2018-04-26T19:08:25.383Z,100692.78
2018-04-26T19:10:50.942Z,100700.08
2018-04-26T19:13:16.563Z,100698.73
2018-04-26T19:15:42.462Z,100695.77
2018-04-26T19:18:08.271Z,100695.89
2018-04-26T19:20:33.854Z,100704.91
2018-04-26T19:22:59.694Z,100694.73
2018-04-26T19:25:25.525Z,100689.72
2018-04-26T19:27:51.167Z,100702.49
2018-04-26T19:30:16.654Z,100707.17
2018-04-26T19:32:42.681Z,100703.28
2018-04-26T19:35:08.467Z,100710.70
2018-04-26T19:37:34.128Z,100708.16
2018-04-26T19:39:59.906Z,100709.50
2018-04-26T19:42:25.583Z,100705.18
2018-04-26T19:44:51.136Z,100709.50
2018-04-26T19:47:16.951Z,100708.69
2018-04-26T19:49:42.576Z,100708.47
2018-04-26T19:52:08.250Z,100713.91
2018-04-26T19:54:34.230Z,100707.97
2018-04-26T19:56:59.868Z,100712.97
2018-04-26T19:59:25.634Z,100707.93
2018-04-26T20:01:51.359Z,100703.72
2018-04-26T20:04:17.186Z,100707.17
2018-04-26T20:06:42.817Z,100705.45
2018-04-26T20:09:09.018Z,100706.99
2018-04-26T20:11:34.585Z,100705.41
2018-04-26T20:14:02.087Z,100709.52
2018-04-26T20:16:28.332Z,100704.06
2018-04-26T20:18:55.823Z,100709.86
2018-04-26T20:21:21.658Z,100715.33
2018-04-26T20:23:47.415Z,100710.41
2018-04-26T20:26:13.021Z,100712.86
2018-04-26T20:28:38.933Z,100713.06
2018-04-26T20:31:05.157Z,100711.34
2018-04-26T20:33:30.787Z,100715.45
2018-04-26T20:35:56.696Z,100713.33
2018-04-26T20:38:22.325Z,100711.02
2018-04-26T20:40:47.960Z,100710.94
2018-04-26T20:43:13.736Z,100716.73
2018-04-26T20:45:39.549Z,100717.91
2018-04-26T20:48:05.185Z,100714.45
2018-04-26T20:50:30.764Z,100714.61
2018-04-26T20:52:56.670Z,100706.97
2018-04-26T20:55:22.233Z,100704.10
2018-04-26T20:57:48.348Z,100702.56
2018-04-26T21:00:14.492Z,100709.80
2018-04-26T21:02:40.254Z,100697.53
2018-04-26T21:05:05.853Z,100703.42
2018-04-26T21:07:31.539Z,100698.20
2018-04-26T21:09:58.455Z,100692.63
2018-04-26T21:12:24.115Z,100695.70
2018-04-26T21:14:49.730Z,100688.68
2018-04-26T21:17:15.583Z,100690.30
2018-04-26T21:19:41.172Z,100690.21
2018-04-26T21:22:06.876Z,100687.53
2018-04-26T21:24:32.732Z,100681.61
2018-04-26T21:26:58.596Z,100693.34
2018-04-26T21:29:24.483Z,100694.15
2018-04-26T21:31:50.210Z,100691.84
2018-04-26T21:34:15.932Z,100689.77
2018-04-26T21:36:41.866Z,100686.53
2018-04-26T21:39:07.824Z,100690.84
2018-04-26T21:41:33.425Z,100692.98
2018-04-26T21:43:59.062Z,100686.58
2018-04-26T21:46:24.833Z,100690.47
2018-04-26T21:48:50.442Z,100691.40
2018-04-26T21:51:34.964Z,100686.61
2018-04-26T21:54:19.660Z,100689.78
2018-04-26T21:57:04.081Z,100683.41
2018-04-26T21:59:48.627Z,100687.48
2018-04-26T22:02:23.770Z,100692.14
2018-04-26T22:05:04.746Z,100681.94
2018-04-26T22:07:30.578Z,100680.16
2018-04-26T22:09:56.240Z,100678.04
2018-04-26T22:12:21.821Z,100673.88
2018-04-26T22:14:47.618Z,100678.49
2018-04-26T22:17:13.279Z,100676.75
2018-04-26T22:19:38.868Z,100672.92
